sensor_id;sensor_type;location;lat;lon;timestamp;temperature;humidity
34279;DHT22;20538;51.528;9.942;2023-04-01T00:00:55;10.00;99.90
34279;DHT22;20538;51.528;9.942;2023-04-01T00:03:22;10.10;99.90
34279;DHT22;20538;51.528;9.942;2023-04-01T00:05:48;10.00;99.90
34279;DHT22;20538;51.528;9.942;2023-04-01T00:08:15;10.00;99.90
34279;DHT22;20538;51.528;9.942;2023-04-01T00:10:40;10.00;99.90
34279;DHT22;20538;51.528;9.942;2023-04-01T00:13:07;10.00;99.90
34279;DHT22;20538;51.528;9.942;2023-04-01T00:15:33;10.00;99.90
34279;DHT22;20538;51.528;9.942;2023-04-01T00:17:58;10.00;99.90
34279;DHT22;20538;51.528;9.942;2023-04-01T00:20:24;10.00;99.90
34279;DHT22;20538;51.528;9.942;2023-04-01T00:22:50;10.00;99.90
34279;DHT22;20538;51.528;9.942;2023-04-01T00:25:15;9.90;99.90
34279;DHT22;20538;51.528;9.942;2023-04-01T00:27:41;9.90;99.90
34279;DHT22;20538;51.528;9.942;2023-04-01T00:30:08;10.00;99.90
34279;DHT22;20538;51.528;9.942;2023-04-01T00:32:34;9.90;99.90
34279;DHT22;20538;51.528;9.942;2023-04-01T00:35:01;9.90;99.90
34279;DHT22;20538;51.528;9.942;2023-04-01T00:37:27;9.90;99.90
34279;DHT22;20538;51.528;9.942;2023-04-01T00:39:56;9.80;99.90
34279;DHT22;20538;51.528;9.942;2023-04-01T00:42:22;9.80;99.90
34279;DHT22;20538;51.528;9.942;2023-04-01T00:44:51;9.80;99.90
34279;DHT22;20538;51.528;9.942;2023-04-01T00:47:18;9.80;99.90
34279;DHT22;20538;51.528;9.942;2023-04-01T00:49:46;9.80;99.90
34279;DHT22;20538;51.528;9.942;2023-04-01T00:52:17;9.80;99.90
34279;DHT22;20538;51.528;9.942;2023-04-01T00:54:46;9.80;99.90
34279;DHT22;20538;51.528;9.942;2023-04-01T00:57:22;9.80;99.90
34279;DHT22;20538;51.528;9.942;2023-04-01T00:59:52;9.80;99.90
34279;DHT22;20538;51.528;9.942;2023-04-01T01:02:19;9.80;99.90
34279;DHT22;20538;51.528;9.942;2023-04-01T01:04:45;9.80;99.90
34279;DHT22;20538;51.528;9.942;2023-04-01T01:07:27;9.80;99.90
34279;DHT22;20538;51.528;9.942;2023-04-01T01:13:03;9.80;99.90
34279;DHT22;20538;51.528;9.942;2023-04-01T01:15:35;9.80;99.90
34279;DHT22;20538;51.528;9.942;2023-04-01T01:29:56;9.80;99.90
34279;DHT22;20538;51.528;9.942;2023-04-01T01:35:27;9.70;99.90
34279;DHT22;20538;51.528;9.942;2023-04-01T01:37:58;9.70;99.90
34279;DHT22;20538;51.528;9.942;2023-04-01T01:40:26;9.70;99.90
34279;DHT22;20538;51.528;9.942;2023-04-01T01:42:56;9.70;99.90
34279;DHT22;20538;51.528;9.942;2023-04-01T01:45:25;9.70;99.90
34279;DHT22;20538;51.528;9.942;2023-04-01T01:47:51;9.60;99.90
34279;DHT22;20538;51.528;9.942;2023-04-01T01:50:19;9.60;99.90
34279;DHT22;20538;51.528;9.942;2023-04-01T01:52:45;9.60;99.90
34279;DHT22;20538;51.528;9.942;2023-04-01T01:55:34;9.70;99.90
34279;DHT22;20538;51.528;9.942;2023-04-01T01:58:23;9.60;99.90
34279;DHT22;20538;51.528;9.942;2023-04-01T02:00:57;9.60;99.90
34279;DHT22;20538;51.528;9.942;2023-04-01T02:03:25;9.60;99.90
34279;DHT22;20538;51.528;9.942;2023-04-01T02:05:53;9.60;99.90
34279;DHT22;20538;51.528;9.942;2023-04-01T02:08:26;9.60;99.90
34279;DHT22;20538;51.528;9.942;2023-04-01T02:11:00;9.60;99.90
34279;DHT22;20538;51.528;9.942;2023-04-01T02:13:35;9.60;99.90
34279;DHT22;20538;51.528;9.942;2023-04-01T02:16:09;9.60;99.90
34279;DHT22;20538;51.528;9.942;2023-04-01T02:18:36;9.60;99.90
34279;DHT22;20538;51.528;9.942;2023-04-01T02:21:05;9.60;99.90
34279;DHT22;20538;51.528;9.942;2023-04-01T02:23:34;9.60;99.90
34279;DHT22;20538;51.528;9.942;2023-04-01T02:26:02;9.60;99.90
34279;DHT22;20538;51.528;9.942;2023-04-01T02:28:29;9.60;99.90
34279;DHT22;20538;51.528;9.942;2023-04-01T02:30:57;9.60;99.90
34279;DHT22;20538;51.528;9.942;2023-04-01T02:33:25;9.60;99.90
34279;DHT22;20538;51.528;9.942;2023-04-01T02:35:52;9.60;99.90
34279;DHT22;20538;51.528;9.942;2023-04-01T02:38:18;9.60;99.90
34279;DHT22;20538;51.528;9.942;2023-04-01T02:40:50;9.60;99.90
34279;DHT22;20538;51.528;9.942;2023-04-01T02:43:16;9.60;99.90
34279;DHT22;20538;51.528;9.942;2023-04-01T02:45:45;9.60;99.90
34279;DHT22;20538;51.528;9.942;2023-04-01T02:48:11;9.60;99.90
34279;DHT22;20538;51.528;9.942;2023-04-01T02:50:38;9.60;99.90
34279;DHT22;20538;51.528;9.942;2023-04-01T02:53:03;9.60;99.90
34279;DHT22;20538;51.528;9.942;2023-04-01T02:55:32;9.60;99.90
34279;DHT22;20538;51.528;9.942;2023-04-01T02:57:57;9.60;99.90
34279;DHT22;20538;51.528;9.942;2023-04-01T03:00:23;9.50;99.90
34279;DHT22;20538;51.528;9.942;2023-04-01T03:02:49;9.50;99.90
34279;DHT22;20538;51.528;9.942;2023-04-01T03:05:15;9.50;99.90
34279;DHT22;20538;51.528;9.942;2023-04-01T03:07:40;9.50;99.90
34279;DHT22;20538;51.528;9.942;2023-04-01T03:10:07;9.50;99.90
34279;DHT22;20538;51.528;9.942;2023-04-01T03:12:33;9.60;99.90
34279;DHT22;20538;51.528;9.942;2023-04-01T03:14:58;9.60;99.90
34279;DHT22;20538;51.528;9.942;2023-04-01T03:17:24;9.60;99.90
34279;DHT22;20538;51.528;9.942;2023-04-01T03:19:50;9.60;99.90
34279;DHT22;20538;51.528;9.942;2023-04-01T03:22:15;9.60;99.90
34279;DHT22;20538;51.528;9.942;2023-04-01T03:24:41;9.60;99.90
34279;DHT22;20538;51.528;9.942;2023-04-01T03:27:07;9.60;99.90
34279;DHT22;20538;51.528;9.942;2023-04-01T03:29:32;9.60;99.90
34279;DHT22;20538;51.528;9.942;2023-04-01T03:31:58;9.60;99.90
34279;DHT22;20538;51.528;9.942;2023-04-01T03:34:25;9.60;99.90
34279;DHT22;20538;51.528;9.942;2023-04-01T03:36:51;9.60;99.90
34279;DHT22;20538;51.528;9.942;2023-04-01T03:39:16;9.50;99.90
34279;DHT22;20538;51.528;9.942;2023-04-01T03:41:44;9.60;99.90
34279;DHT22;20538;51.528;9.942;2023-04-01T03:44:11;9.60;99.90
34279;DHT22;20538;51.528;9.942;2023-04-01T03:46:37;9.60;99.90
34279;DHT22;20538;51.528;9.942;2023-04-01T03:49:05;9.60;99.90
34279;DHT22;20538;51.528;9.942;2023-04-01T03:51:40;9.60;99.90
34279;DHT22;20538;51.528;9.942;2023-04-01T03:54:06;9.60;99.90
34279;DHT22;20538;51.528;9.942;2023-04-01T03:56:32;9.60;99.90
34279;DHT22;20538;51.528;9.942;2023-04-01T03:58:58;9.60;99.90
34279;DHT22;20538;51.528;9.942;2023-04-01T04:01:23;9.60;99.90
34279;DHT22;20538;51.528;9.942;2023-04-01T04:03:50;9.50;99.90
34279;DHT22;20538;51.528;9.942;2023-04-01T04:06:17;9.50;99.90
34279;DHT22;20538;51.528;9.942;2023-04-01T04:08:44;9.50;99.90
34279;DHT22;20538;51.528;9.942;2023-04-01T04:11:10;9.40;99.90
34279;DHT22;20538;51.528;9.942;2023-04-01T04:13:35;9.40;99.90
34279;DHT22;20538;51.528;9.942;2023-04-01T04:16:02;9.30;99.90
34279;DHT22;20538;51.528;9.942;2023-04-01T04:18:29;9.30;99.90
34279;DHT22;20538;51.528;9.942;2023-04-01T04:20:55;9.30;99.90
34279;DHT22;20538;51.528;9.942;2023-04-01T04:23:21;9.30;99.90
34279;DHT22;20538;51.528;9.942;2023-04-01T04:25:58;9.30;99.90
34279;DHT22;20538;51.528;9.942;2023-04-01T04:28:26;9.30;99.90
34279;DHT22;20538;51.528;9.942;2023-04-01T04:30:52;9.30;99.90
34279;DHT22;20538;51.528;9.942;2023-04-01T04:33:18;9.20;99.90
34279;DHT22;20538;51.528;9.942;2023-04-01T04:35:43;9.30;99.90
34279;DHT22;20538;51.528;9.942;2023-04-01T04:38:09;9.20;99.90
34279;DHT22;20538;51.528;9.942;2023-04-01T04:40:39;9.20;99.90
34279;DHT22;20538;51.528;9.942;2023-04-01T04:43:05;9.20;99.90
34279;DHT22;20538;51.528;9.942;2023-04-01T04:45:31;9.20;99.90
34279;DHT22;20538;51.528;9.942;2023-04-01T04:47:56;9.20;99.90
34279;DHT22;20538;51.528;9.942;2023-04-01T04:50:22;9.20;99.90
34279;DHT22;20538;51.528;9.942;2023-04-01T04:52:48;9.20;99.90
34279;DHT22;20538;51.528;9.942;2023-04-01T04:55:14;9.20;99.90
34279;DHT22;20538;51.528;9.942;2023-04-01T04:57:41;9.20;99.90
34279;DHT22;20538;51.528;9.942;2023-04-01T05:00:07;9.30;99.90
34279;DHT22;20538;51.528;9.942;2023-04-01T05:02:33;9.30;99.90
34279;DHT22;20538;51.528;9.942;2023-04-01T05:04:59;9.30;99.90
34279;DHT22;20538;51.528;9.942;2023-04-01T05:07:25;9.30;99.90
34279;DHT22;20538;51.528;9.942;2023-04-01T05:09:51;9.30;99.90
34279;DHT22;20538;51.528;9.942;2023-04-01T05:12:16;9.30;99.90
34279;DHT22;20538;51.528;9.942;2023-04-01T05:14:42;9.30;99.90
34279;DHT22;20538;51.528;9.942;2023-04-01T05:17:09;9.30;99.90
34279;DHT22;20538;51.528;9.942;2023-04-01T05:19:35;9.30;99.90
34279;DHT22;20538;51.528;9.942;2023-04-01T05:22:01;9.30;99.90
34279;DHT22;20538;51.528;9.942;2023-04-01T05:24:27;9.30;99.90
34279;DHT22;20538;51.528;9.942;2023-04-01T05:26:52;9.40;99.90
34279;DHT22;20538;51.528;9.942;2023-04-01T05:29:18;9.40;99.90
34279;DHT22;20538;51.528;9.942;2023-04-01T05:31:43;9.40;99.90
34279;DHT22;20538;51.528;9.942;2023-04-01T05:34:09;9.40;99.90
34279;DHT22;20538;51.528;9.942;2023-04-01T05:36:36;9.40;99.90
34279;DHT22;20538;51.528;9.942;2023-04-01T05:39:02;9.40;99.90
34279;DHT22;20538;51.528;9.942;2023-04-01T05:41:27;9.40;99.90
34279;DHT22;20538;51.528;9.942;2023-04-01T05:43:53;9.40;99.90
34279;DHT22;20538;51.528;9.942;2023-04-01T05:46:19;9.50;99.90
34279;DHT22;20538;51.528;9.942;2023-04-01T05:48:44;9.40;99.90
34279;DHT22;20538;51.528;9.942;2023-04-01T05:51:14;9.40;99.90
34279;DHT22;20538;51.528;9.942;2023-04-01T05:53:40;9.40;99.90
34279;DHT22;20538;51.528;9.942;2023-04-01T05:56:06;9.50;99.90
34279;DHT22;20538;51.528;9.942;2023-04-01T05:58:35;9.50;99.90
34279;DHT22;20538;51.528;9.942;2023-04-01T06:01:04;9.50;99.90
34279;DHT22;20538;51.528;9.942;2023-04-01T06:03:30;9.50;99.90
34279;DHT22;20538;51.528;9.942;2023-04-01T06:05:56;9.60;99.90
34279;DHT22;20538;51.528;9.942;2023-04-01T06:08:21;9.50;99.90
34279;DHT22;20538;51.528;9.942;2023-04-01T06:19:36;9.80;99.90
34279;DHT22;20538;51.528;9.942;2023-04-01T06:35:14;10.10;99.90
34279;DHT22;20538;51.528;9.942;2023-04-01T06:43:45;10.20;99.90
34279;DHT22;20538;51.528;9.942;2023-04-01T06:46:41;10.20;99.90
34279;DHT22;20538;51.528;9.942;2023-04-01T06:54:26;10.30;99.90
34279;DHT22;20538;51.528;9.942;2023-04-01T06:56:58;10.30;99.90
34279;DHT22;20538;51.528;9.942;2023-04-01T06:59:27;10.30;99.90
34279;DHT22;20538;51.528;9.942;2023-04-01T07:02:05;10.30;99.90
34279;DHT22;20538;51.528;9.942;2023-04-01T07:04:44;10.30;99.90
34279;DHT22;20538;51.528;9.942;2023-04-01T07:07:31;10.30;99.90
34279;DHT22;20538;51.528;9.942;2023-04-01T07:09:59;10.20;99.90
34279;DHT22;20538;51.528;9.942;2023-04-01T07:12:37;10.30;99.90
34279;DHT22;20538;51.528;9.942;2023-04-01T07:15:28;10.40;99.90
34279;DHT22;20538;51.528;9.942;2023-04-01T07:18:05;10.50;99.90
34279;DHT22;20538;51.528;9.942;2023-04-01T07:20:37;10.40;99.90
34279;DHT22;20538;51.528;9.942;2023-04-01T07:23:08;10.50;99.90
34279;DHT22;20538;51.528;9.942;2023-04-01T07:25:45;10.60;99.90
34279;DHT22;20538;51.528;9.942;2023-04-01T07:28:15;10.70;99.90
34279;DHT22;20538;51.528;9.942;2023-04-01T07:33:44;10.70;99.90
34279;DHT22;20538;51.528;9.942;2023-04-01T07:39:04;10.60;99.90
34279;DHT22;20538;51.528;9.942;2023-04-01T07:47:00;10.60;99.90
34279;DHT22;20538;51.528;9.942;2023-04-01T07:49:49;10.60;99.90
34279;DHT22;20538;51.528;9.942;2023-04-01T07:52:38;10.70;99.90
34279;DHT22;20538;51.528;9.942;2023-04-01T07:55:14;10.70;99.90
34279;DHT22;20538;51.528;9.942;2023-04-01T07:57:49;10.70;99.90
34279;DHT22;20538;51.528;9.942;2023-04-01T08:00:24;10.70;99.90
34279;DHT22;20538;51.528;9.942;2023-04-01T08:05:29;10.90;99.90
34279;DHT22;20538;51.528;9.942;2023-04-01T08:11:14;10.90;99.90
34279;DHT22;20538;51.528;9.942;2023-04-01T08:16:31;10.90;99.90
34279;DHT22;20538;51.528;9.942;2023-04-01T08:19:09;10.80;99.90
34279;DHT22;20538;51.528;9.942;2023-04-01T08:21:51;10.70;99.90
34279;DHT22;20538;51.528;9.942;2023-04-01T08:24:50;10.80;99.90
34279;DHT22;20538;51.528;9.942;2023-04-01T08:27:39;10.70;99.90
34279;DHT22;20538;51.528;9.942;2023-04-01T08:30:20;10.70;99.90
34279;DHT22;20538;51.528;9.942;2023-04-01T08:33:44;10.70;99.90
34279;DHT22;20538;51.528;9.942;2023-04-01T08:38:38;10.90;99.90
34279;DHT22;20538;51.528;9.942;2023-04-01T08:50:36;11.10;99.90
34279;DHT22;20538;51.528;9.942;2023-04-01T08:53:07;11.10;99.90
34279;DHT22;20538;51.528;9.942;2023-04-01T09:29:49;12.20;99.90
34279;DHT22;20538;51.528;9.942;2023-04-01T09:32:40;12.30;99.90
34279;DHT22;20538;51.528;9.942;2023-04-01T09:38:04;12.50;99.90
34279;DHT22;20538;51.528;9.942;2023-04-01T09:43:30;12.90;99.90
34279;DHT22;20538;51.528;9.942;2023-04-01T09:49:09;13.00;99.90
34279;DHT22;20538;51.528;9.942;2023-04-01T09:54:39;13.00;99.90
34279;DHT22;20538;51.528;9.942;2023-04-01T10:00:10;13.20;99.90
34279;DHT22;20538;51.528;9.942;2023-04-01T10:27:33;14.10;99.90
34279;DHT22;20538;51.528;9.942;2023-04-01T10:33:19;13.80;99.90
34279;DHT22;20538;51.528;9.942;2023-04-01T10:53:32;13.30;99.90
34279;DHT22;20538;51.528;9.942;2023-04-01T10:58:52;13.10;99.90
34279;DHT22;20538;51.528;9.942;2023-04-01T11:01:52;13.00;99.90
34279;DHT22;20538;51.528;9.942;2023-04-01T11:04:56;12.70;99.90
34279;DHT22;20538;51.528;9.942;2023-04-01T11:21:46;12.80;99.90
34279;DHT22;20538;51.528;9.942;2023-04-01T11:24:29;13.00;99.90
34279;DHT22;20538;51.528;9.942;2023-04-01T11:31:14;13.50;99.90
34279;DHT22;20538;51.528;9.942;2023-04-01T11:33:27;13.50;99.90
34279;DHT22;20538;51.528;9.942;2023-04-01T11:39:02;13.60;99.90
34279;DHT22;20538;51.528;9.942;2023-04-01T11:44:24;13.60;99.90
34279;DHT22;20538;51.528;9.942;2023-04-01T12:03:56;13.70;99.90
34279;DHT22;20538;51.528;9.942;2023-04-01T12:06:58;13.80;99.90
34279;DHT22;20538;51.528;9.942;2023-04-01T12:12:12;13.40;99.90
34279;DHT22;20538;51.528;9.942;2023-04-01T12:14:46;13.60;99.90
34279;DHT22;20538;51.528;9.942;2023-04-01T12:36:37;13.70;99.90
34279;DHT22;20538;51.528;9.942;2023-04-01T12:55:46;13.70;99.90
34279;DHT22;20538;51.528;9.942;2023-04-01T13:28:01;12.40;99.90
34279;DHT22;20538;51.528;9.942;2023-04-01T13:30:34;12.40;99.90
34279;DHT22;20538;51.528;9.942;2023-04-01T13:33:04;12.50;99.90
34279;DHT22;20538;51.528;9.942;2023-04-01T13:41:32;13.00;99.90
34279;DHT22;20538;51.528;9.942;2023-04-01T13:44:23;13.30;99.90
34279;DHT22;20538;51.528;9.942;2023-04-01T13:47:17;13.50;99.90
34279;DHT22;20538;51.528;9.942;2023-04-01T13:50:30;14.00;99.90
34279;DHT22;20538;51.528;9.942;2023-04-01T14:11:56;14.30;99.90
34279;DHT22;20538;51.528;9.942;2023-04-01T14:17:24;13.80;99.90
34279;DHT22;20538;51.528;9.942;2023-04-01T14:28:35;13.60;99.90
34279;DHT22;20538;51.528;9.942;2023-04-01T14:34:21;13.70;99.90
34279;DHT22;20538;51.528;9.942;2023-04-01T14:42:08;13.40;99.90
34279;DHT22;20538;51.528;9.942;2023-04-01T14:50:40;13.10;99.90
34279;DHT22;20538;51.528;9.942;2023-04-01T14:55:47;12.80;99.90
34279;DHT22;20538;51.528;9.942;2023-04-01T14:58:16;12.70;99.90
34279;DHT22;20538;51.528;9.942;2023-04-01T15:20:56;12.60;99.90
34279;DHT22;20538;51.528;9.942;2023-04-01T15:23:45;12.60;99.90
34279;DHT22;20538;51.528;9.942;2023-04-01T15:26:17;12.60;99.90
34279;DHT22;20538;51.528;9.942;2023-04-01T15:31:58;12.70;99.90
34279;DHT22;20538;51.528;9.942;2023-04-01T15:34:38;12.60;99.90
34279;DHT22;20538;51.528;9.942;2023-04-01T15:37:36;12.50;99.90
34279;DHT22;20538;51.528;9.942;2023-04-01T15:45:41;12.40;99.90
34279;DHT22;20538;51.528;9.942;2023-04-01T15:48:39;12.40;99.90
34279;DHT22;20538;51.528;9.942;2023-04-01T16:10:09;12.00;99.90
34279;DHT22;20538;51.528;9.942;2023-04-01T16:15:24;11.80;99.90
34279;DHT22;20538;51.528;9.942;2023-04-01T16:23:29;11.70;99.90
34279;DHT22;20538;51.528;9.942;2023-04-01T16:26:20;11.60;99.90
34279;DHT22;20538;51.528;9.942;2023-04-01T16:35:05;11.50;99.90
34279;DHT22;20538;51.528;9.942;2023-04-01T16:41:33;11.40;99.90
34279;DHT22;20538;51.528;9.942;2023-04-01T16:43:48;11.40;99.90
34279;DHT22;20538;51.528;9.942;2023-04-01T16:46:32;11.40;99.90
34279;DHT22;20538;51.528;9.942;2023-04-01T16:57:59;10.90;99.90
34279;DHT22;20538;51.528;9.942;2023-04-01T17:00:28;10.90;99.90
34279;DHT22;20538;51.528;9.942;2023-04-01T17:11:21;10.10;99.90
34279;DHT22;20538;51.528;9.942;2023-04-01T17:20:28;9.90;99.90
34279;DHT22;20538;51.528;9.942;2023-04-01T17:22:58;9.90;99.90
34279;DHT22;20538;51.528;9.942;2023-04-01T17:28:18;9.90;99.90
34279;DHT22;20538;51.528;9.942;2023-04-01T17:30:55;9.90;99.90
34279;DHT22;20538;51.528;9.942;2023-04-01T17:58:31;9.80;99.90
34279;DHT22;20538;51.528;9.942;2023-04-01T18:21:10;10.00;99.90
34279;DHT22;20538;51.528;9.942;2023-04-01T18:23:50;9.90;99.90
34279;DHT22;20538;51.528;9.942;2023-04-01T18:26:44;9.80;99.90
34279;DHT22;20538;51.528;9.942;2023-04-01T18:32:00;9.70;99.90
34279;DHT22;20538;51.528;9.942;2023-04-01T18:34:53;9.70;99.90
34279;DHT22;20538;51.528;9.942;2023-04-01T18:48:16;9.80;99.90
34279;DHT22;20538;51.528;9.942;2023-04-01T18:53:44;9.80;99.90
34279;DHT22;20538;51.528;9.942;2023-04-01T18:56:26;9.70;99.90
34279;DHT22;20538;51.528;9.942;2023-04-01T18:59:20;9.70;99.90
34279;DHT22;20538;51.528;9.942;2023-04-01T19:07:52;9.50;99.90
34279;DHT22;20538;51.528;9.942;2023-04-01T19:10:31;9.40;99.90
34279;DHT22;20538;51.528;9.942;2023-04-01T19:18:49;9.40;99.90
34279;DHT22;20538;51.528;9.942;2023-04-01T19:21:41;9.50;99.90
34279;DHT22;20538;51.528;9.942;2023-04-01T19:27:41;9.40;99.90
34279;DHT22;20538;51.528;9.942;2023-04-01T19:31:14;9.30;99.90
34279;DHT22;20538;51.528;9.942;2023-04-01T19:33:28;9.30;99.90
34279;DHT22;20538;51.528;9.942;2023-04-01T19:36:14;9.30;99.90
34279;DHT22;20538;51.528;9.942;2023-04-01T19:39:10;9.30;99.90
34279;DHT22;20538;51.528;9.942;2023-04-01T19:41:44;9.40;99.90
34279;DHT22;20538;51.528;9.942;2023-04-01T19:47:19;9.40;99.90
34279;DHT22;20538;51.528;9.942;2023-04-01T19:49:49;9.50;99.90
34279;DHT22;20538;51.528;9.942;2023-04-01T19:52:33;9.50;99.90
34279;DHT22;20538;51.528;9.942;2023-04-01T19:58:11;9.70;99.90
34279;DHT22;20538;51.528;9.942;2023-04-01T20:00:58;9.70;99.90
34279;DHT22;20538;51.528;9.942;2023-04-01T20:03:50;9.50;99.90
34279;DHT22;20538;51.528;9.942;2023-04-01T20:06:22;9.60;99.90
34279;DHT22;20538;51.528;9.942;2023-04-01T20:09:07;9.60;99.90
34279;DHT22;20538;51.528;9.942;2023-04-01T20:11:55;9.50;99.90
34279;DHT22;20538;51.528;9.942;2023-04-01T20:17:19;9.50;99.90
34279;DHT22;20538;51.528;9.942;2023-04-01T20:19:58;9.40;99.90
34279;DHT22;20538;51.528;9.942;2023-04-01T20:25:14;9.40;99.90
34279;DHT22;20538;51.528;9.942;2023-04-01T20:27:49;9.50;99.90
34279;DHT22;20538;51.528;9.942;2023-04-01T20:30:38;9.50;99.90
34279;DHT22;20538;51.528;9.942;2023-04-01T20:33:26;9.40;99.90
34279;DHT22;20538;51.528;9.942;2023-04-01T20:36:05;9.40;99.90
34279;DHT22;20538;51.528;9.942;2023-04-01T20:50:28;8.80;99.90
34279;DHT22;20538;51.528;9.942;2023-04-01T20:53:43;8.80;99.90
34279;DHT22;20538;51.528;9.942;2023-04-01T20:59:16;8.50;99.90
34279;DHT22;20538;51.528;9.942;2023-04-01T21:07:51;8.40;99.90
34279;DHT22;20538;51.528;9.942;2023-04-01T21:10:28;8.30;99.90
34279;DHT22;20538;51.528;9.942;2023-04-01T21:21:14;8.30;99.90
34279;DHT22;20538;51.528;9.942;2023-04-01T21:26:48;8.20;99.90
34279;DHT22;20538;51.528;9.942;2023-04-01T21:34:35;8.10;99.90
34279;DHT22;20538;51.528;9.942;2023-04-01T21:40:27;8.10;99.90
34279;DHT22;20538;51.528;9.942;2023-04-01T21:49:40;8.00;99.90
34279;DHT22;20538;51.528;9.942;2023-04-01T21:55:21;8.00;99.90
34279;DHT22;20538;51.528;9.942;2023-04-01T22:00:40;7.90;99.90
34279;DHT22;20538;51.528;9.942;2023-04-01T22:08:50;7.90;99.90
34279;DHT22;20538;51.528;9.942;2023-04-01T22:11:25;7.80;99.90
34279;DHT22;20538;51.528;9.942;2023-04-01T22:14:27;7.80;99.90
34279;DHT22;20538;51.528;9.942;2023-04-01T22:16:59;7.90;99.90
34279;DHT22;20538;51.528;9.942;2023-04-01T22:27:30;7.80;99.90
34279;DHT22;20538;51.528;9.942;2023-04-01T22:30:14;7.50;99.90
34279;DHT22;20538;51.528;9.942;2023-04-01T22:43:43;7.20;99.90
34279;DHT22;20538;51.528;9.942;2023-04-01T22:46:26;7.10;99.90
34279;DHT22;20538;51.528;9.942;2023-04-01T22:51:55;6.90;99.90
34279;DHT22;20538;51.528;9.942;2023-04-01T22:54:29;6.80;99.90
34279;DHT22;20538;51.528;9.942;2023-04-01T22:59:50;6.70;99.90
34279;DHT22;20538;51.528;9.942;2023-04-01T23:02:28;6.70;99.90
34279;DHT22;20538;51.528;9.942;2023-04-01T23:05:04;6.60;99.90
34279;DHT22;20538;51.528;9.942;2023-04-01T23:10:05;6.70;99.90
34279;DHT22;20538;51.528;9.942;2023-04-01T23:12:38;6.70;99.90
34279;DHT22;20538;51.528;9.942;2023-04-01T23:15:12;6.70;99.90
34279;DHT22;20538;51.528;9.942;2023-04-01T23:17:54;6.60;99.90
34279;DHT22;20538;51.528;9.942;2023-04-01T23:20:54;6.50;99.90
34279;DHT22;20538;51.528;9.942;2023-04-01T23:26:17;6.50;99.90
34279;DHT22;20538;51.528;9.942;2023-04-01T23:28:55;6.60;99.90
34279;DHT22;20538;51.528;9.942;2023-04-01T23:31:49;6.50;99.90
34279;DHT22;20538;51.528;9.942;2023-04-01T23:34:33;6.50;99.90
34279;DHT22;20538;51.528;9.942;2023-04-01T23:37:05;6.40;99.90
34279;DHT22;20538;51.528;9.942;2023-04-01T23:39:36;6.30;99.90
34279;DHT22;20538;51.528;9.942;2023-04-01T23:44:40;6.30;99.90
34279;DHT22;20538;51.528;9.942;2023-04-01T23:47:08;6.30;99.90
34279;DHT22;20538;51.528;9.942;2023-04-01T23:49:40;6.20;99.90
34279;DHT22;20538;51.528;9.942;2023-04-01T23:52:23;6.20;99.90
34279;DHT22;20538;51.528;9.942;2023-04-01T23:54:54;6.30;99.90
34279;DHT22;20538;51.528;9.942;2023-04-01T23:57:33;6.20;99.90
